createdAt,value
2023-01-11T00:00:39.237Z,18.70
2023-01-11T00:03:06.707Z,28.00
2023-01-11T00:05:41.287Z,19.40
2023-01-11T00:08:08.701Z,19.20
2023-01-11T00:10:36.238Z,22.50
2023-01-11T00:13:03.575Z,27.20
2023-01-11T00:15:30.728Z,20.50
2023-01-11T00:17:57.896Z,19.70
2023-01-11T00:20:25.279Z,24.30
2023-01-11T00:22:52.431Z,17.50
2023-01-11T00:25:19.299Z,20.10
2023-01-11T00:27:47.564Z,17.80
2023-01-11T00:30:14.804Z,22.20
2023-01-11T00:32:41.706Z,14.00
2023-01-11T00:35:08.975Z,24.90
2023-01-11T00:37:35.781Z,24.30
2023-01-11T00:40:02.706Z,31.10
2023-01-11T00:42:48.410Z,27.20
2023-01-11T00:45:33.935Z,37.70
2023-01-11T00:48:01.174Z,25.10
2023-01-11T00:50:29.892Z,22.40
2023-01-11T00:52:57.850Z,23.70
2023-01-11T00:55:25.038Z,22.80
2023-01-11T00:57:52.363Z,22.40
2023-01-11T01:00:20.586Z,17.50
2023-01-11T01:02:47.855Z,26.20
2023-01-11T01:05:14.868Z,30.40
2023-01-11T01:07:42.909Z,8.60
2023-01-11T01:10:11.017Z,19.00
2023-01-11T01:12:56.471Z,23.00
2023-01-11T01:15:23.398Z,23.30
2023-01-11T01:17:53.068Z,19.80
2023-01-11T01:20:21.243Z,28.60
2023-01-11T01:22:48.504Z,36.10
2023-01-11T01:25:16.392Z,25.90
2023-01-11T01:27:43.363Z,15.50
2023-01-11T01:30:11.012Z,25.90
2023-01-11T01:32:37.999Z,21.00
2023-01-11T01:35:05.093Z,19.70
2023-01-11T01:37:31.932Z,16.70
2023-01-11T01:39:58.798Z,23.90
2023-01-11T01:42:25.780Z,28.00
2023-01-11T01:44:55.250Z,22.60
2023-01-11T01:47:33.936Z,20.10
2023-01-11T01:50:03.542Z,23.40
2023-01-11T01:52:31.714Z,27.10
2023-01-11T01:54:59.800Z,20.80
2023-01-11T01:57:29.208Z,11.70
2023-01-11T01:59:56.664Z,26.90
2023-01-11T02:02:24.339Z,23.50
2023-01-11T02:04:51.553Z,20.40
2023-01-11T02:07:20.996Z,37.70
2023-01-11T02:09:50.802Z,25.70
2023-01-11T02:12:18.257Z,15.80
2023-01-11T02:14:45.858Z,22.10
2023-01-11T02:17:13.341Z,16.80
2023-01-11T02:19:52.545Z,35.90
2023-01-11T02:22:38.681Z,34.00
2023-01-11T02:25:55.759Z,28.70
2023-01-11T02:28:33.097Z,32.10
2023-01-11T02:31:20.139Z,24.70
2023-01-11T02:34:16.193Z,43.70
2023-01-11T02:36:57.315Z,25.30
2023-01-11T02:39:37.964Z,33.30
2023-01-11T02:42:51.970Z,21.90
2023-01-11T02:45:36.339Z,27.20
2023-01-11T02:48:18.688Z,23.00
2023-01-11T02:51:11.247Z,16.90
2023-01-11T02:53:45.080Z,15.00
2023-01-11T02:56:33.128Z,6.50
2023-01-11T02:59:01.229Z,10.00
2023-01-11T03:01:28.204Z,9.40
2023-01-11T03:03:55.234Z,9.00
2023-01-11T03:06:32.775Z,10.10
2023-01-11T03:09:19.807Z,25.80
2023-01-11T03:12:19.761Z,10.90
2023-01-11T03:15:21.488Z,17.50
2023-01-11T03:18:12.401Z,8.80
2023-01-11T03:20:42.049Z,5.30
2023-01-11T03:23:19.743Z,23.30
2023-01-11T03:25:55.932Z,14.20
2023-01-11T03:28:30.616Z,11.80
2023-01-11T03:31:12.984Z,11.80
2023-01-11T03:33:58.990Z,11.30
2023-01-11T03:36:35.595Z,13.50
2023-01-11T03:39:10.001Z,10.50
2023-01-11T03:41:38.194Z,14.50
2023-01-11T03:44:06.529Z,9.30
2023-01-11T03:46:51.222Z,10.50
2023-01-11T03:49:20.085Z,6.90
2023-01-11T03:51:47.106Z,22.50
2023-01-11T03:54:16.175Z,4.30
2023-01-11T03:56:52.216Z,10.00
2023-01-11T03:59:18.986Z,9.20
2023-01-11T04:01:45.790Z,7.20
2023-01-11T04:04:12.839Z,6.50
2023-01-11T04:06:40.158Z,6.80
2023-01-11T04:09:07.040Z,11.10
2023-01-11T04:11:33.781Z,6.30
2023-01-11T04:14:01.615Z,12.60
2023-01-11T04:16:28.647Z,7.70
2023-01-11T04:18:55.627Z,10.60
2023-01-11T04:21:22.568Z,9.80
2023-01-11T04:23:49.525Z,10.60
2023-01-11T04:26:17.953Z,8.00
2023-01-11T04:28:45.080Z,10.80
2023-01-11T04:31:11.959Z,8.80
2023-01-11T04:33:39.126Z,9.20
2023-01-11T04:36:10.439Z,7.40
2023-01-11T04:38:37.338Z,11.90
2023-01-11T04:41:23.951Z,5.50
2023-01-11T04:43:50.894Z,10.40
2023-01-11T04:46:17.710Z,10.90
2023-01-11T04:48:44.608Z,13.40
2023-01-11T04:51:11.409Z,14.90
2023-01-11T04:53:38.222Z,10.40
2023-01-11T04:56:05.996Z,7.70
2023-01-11T04:58:36.496Z,15.90
2023-01-11T05:01:12.017Z,8.30
2023-01-11T05:03:39.001Z,8.50
2023-01-11T05:06:06.642Z,8.90
2023-01-11T05:08:33.833Z,8.80
2023-01-11T05:11:02.506Z,11.50
2023-01-11T05:13:45.284Z,12.00
2023-01-11T05:16:12.201Z,12.10
2023-01-11T05:18:42.823Z,5.10
2023-01-11T05:21:11.099Z,10.30
2023-01-11T05:23:38.083Z,20.10
2023-01-11T05:26:13.272Z,13.50
2023-01-11T05:28:40.337Z,11.10
2023-01-11T05:31:07.073Z,6.80
2023-01-11T05:33:33.996Z,10.70
2023-01-11T05:36:02.181Z,6.60
2023-01-11T05:38:29.323Z,8.00
2023-01-11T05:41:01.318Z,13.80
2023-01-11T05:43:28.732Z,8.40
2023-01-11T05:45:56.579Z,15.20
2023-01-11T05:48:23.989Z,6.40
2023-01-11T05:50:54.609Z,8.50
2023-01-11T05:53:24.510Z,5.20
2023-01-11T05:55:58.321Z,8.20
2023-01-11T05:58:26.296Z,8.10
2023-01-11T06:00:55.181Z,11.20
2023-01-11T06:03:23.266Z,11.20
2023-01-11T06:05:50.470Z,7.80
2023-01-11T06:08:17.426Z,4.80
2023-01-11T06:10:55.289Z,12.20
2023-01-11T06:13:28.787Z,10.60
2023-01-11T06:16:00.723Z,16.90
2023-01-11T06:18:34.844Z,14.90
2023-01-11T10:18:26.621Z,8.60
2023-01-11T10:21:31.746Z,10.80
2023-01-11T10:24:21.567Z,10.80
2023-01-11T10:26:49.122Z,17.90
2023-01-11T10:30:00.309Z,13.70
2023-01-11T10:33:02.881Z,18.70
2023-01-11T10:35:48.031Z,19.10
2023-01-11T10:38:54.952Z,6.10
2023-01-11T10:41:38.771Z,9.10
2023-01-11T10:44:13.747Z,11.30
2023-01-11T10:46:44.616Z,16.90
2023-01-11T10:49:39.259Z,20.90
2023-01-11T10:52:15.264Z,13.50
2023-01-11T10:54:46.922Z,15.60
2023-01-11T11:06:13.428Z,21.70
2023-01-11T11:08:50.989Z,20.70
2023-01-11T11:11:26.931Z,11.30
2023-01-11T11:14:05.432Z,18.90
2023-01-11T11:16:43.665Z,17.70
2023-01-11T11:19:12.215Z,17.80
2023-01-11T11:21:39.884Z,16.70
2023-01-11T11:24:37.220Z,16.50
2023-01-11T11:27:24.015Z,11.70
2023-01-11T11:29:52.966Z,15.60
2023-01-11T11:32:21.380Z,8.40
2023-01-11T11:34:49.180Z,4.60
2023-01-11T11:37:32.901Z,14.30
2023-01-11T11:39:59.858Z,9.90
2023-01-11T11:42:26.915Z,10.10
2023-01-11T11:45:09.285Z,7.90
2023-01-11T11:47:37.070Z,10.90
2023-01-11T11:50:42.557Z,11.30
2023-01-11T11:53:08.236Z,16.40
2023-01-11T11:55:35.097Z,15.50
2023-01-11T11:58:08.637Z,12.60
2023-01-11T12:00:45.097Z,15.10
2023-01-11T12:03:22.150Z,19.70
2023-01-11T12:05:57.805Z,15.50
2023-01-11T12:08:26.407Z,10.50
2023-01-11T12:11:03.789Z,12.40
2023-01-11T12:13:35.309Z,11.20
2023-01-11T12:16:07.503Z,8.40
2023-01-11T12:18:37.411Z,8.40
2023-01-11T12:21:18.475Z,9.60
2023-01-11T12:23:45.289Z,12.80
2023-01-11T12:26:18.214Z,12.60
2023-01-11T12:29:10.155Z,20.00
2023-01-11T12:32:19.437Z,10.30
2023-01-11T12:35:13.670Z,15.80
2023-01-11T12:38:13.982Z,13.40
2023-01-11T12:40:46.988Z,18.10
2023-01-11T12:43:29.379Z,17.50
2023-01-11T12:46:06.757Z,18.80
2023-01-11T12:49:08.060Z,15.20
2023-01-11T12:51:56.457Z,14.10
2023-01-11T12:54:38.609Z,24.40
2023-01-11T12:57:24.251Z,14.70
2023-01-11T12:59:51.011Z,18.70
2023-01-11T13:03:03.871Z,15.30
2023-01-11T13:06:04.810Z,17.40
2023-01-11T13:08:41.679Z,12.90
2023-01-11T13:11:34.455Z,11.20
2023-01-11T13:14:36.984Z,10.90
2023-01-11T13:17:28.871Z,9.30
2023-01-11T13:20:48.610Z,12.10
2023-01-11T13:23:33.121Z,8.10
2023-01-11T13:26:22.072Z,10.10
2023-01-11T13:29:01.540Z,7.90
2023-01-11T13:31:28.531Z,14.40
2023-01-11T13:34:00.584Z,9.10
2023-01-11T13:36:36.589Z,23.70
2023-01-11T13:39:10.327Z,10.70
2023-01-11T13:41:48.513Z,22.60
2023-01-11T13:44:48.267Z,15.70
2023-01-11T13:47:17.115Z,11.70
2023-01-11T13:50:05.218Z,10.60
2023-01-11T13:52:38.459Z,13.40
2023-01-11T13:55:24.859Z,15.90
2023-01-11T13:57:55.222Z,10.90
2023-01-11T14:00:44.102Z,24.20
2023-01-11T14:03:26.519Z,24.70
2023-01-11T14:06:25.121Z,17.60
2023-01-11T14:09:10.884Z,23.40
2023-01-11T14:12:00.149Z,21.00
2023-01-11T14:14:52.742Z,21.10
2023-01-11T14:17:45.799Z,14.50
2023-01-11T14:20:21.810Z,9.10
2023-01-11T14:22:56.037Z,11.10
2023-01-11T14:25:28.956Z,19.60
2023-01-11T19:54:00.115Z,17.60
2023-01-11T19:56:27.458Z,19.90
2023-01-11T19:58:54.314Z,22.70
2023-01-11T20:01:32.532Z,26.00
2023-01-11T20:04:04.193Z,18.00
2023-01-11T20:06:31.595Z,21.10
2023-01-11T20:08:58.496Z,21.10
2023-01-11T20:11:25.492Z,17.50
2023-01-11T20:13:53.113Z,18.80
2023-01-11T20:16:22.371Z,29.70
2023-01-11T20:18:53.536Z,32.90
2023-01-11T20:21:21.080Z,33.80
2023-01-11T20:23:52.050Z,20.30
2023-01-11T20:26:19.104Z,22.40
2023-01-11T20:28:51.248Z,20.40
2023-01-11T20:31:26.758Z,16.60
2023-01-11T20:33:55.107Z,22.30
2023-01-11T20:36:23.749Z,19.40
2023-01-11T20:38:50.897Z,16.50
2023-01-11T20:41:38.491Z,28.90
2023-01-11T20:44:06.087Z,20.80
2023-01-11T20:46:33.469Z,24.60
2023-01-11T20:49:00.402Z,19.00
2023-01-11T20:51:27.433Z,28.20
2023-01-11T20:53:54.125Z,22.50
2023-01-11T20:56:22.071Z,18.30
2023-01-11T20:58:50.874Z,17.80
2023-01-11T21:01:19.648Z,23.30
2023-01-11T21:03:46.613Z,16.10
2023-01-11T21:06:15.676Z,21.70
2023-01-11T21:08:42.835Z,16.10
2023-01-11T21:11:11.902Z,27.50
2023-01-11T21:13:39.160Z,25.80
2023-01-11T21:16:13.922Z,20.60
2023-01-11T21:18:43.127Z,21.00
2023-01-11T21:21:17.262Z,18.60
2023-01-11T21:23:44.476Z,23.40
2023-01-11T21:26:16.146Z,25.50
2023-01-11T21:28:42.957Z,28.30
2023-01-11T21:31:11.341Z,24.20
2023-01-11T21:33:39.326Z,25.40
2023-01-11T21:36:08.325Z,26.70
2023-01-11T21:38:35.229Z,20.80
2023-01-11T21:41:06.130Z,19.70
2023-01-11T21:43:34.346Z,15.60
2023-01-11T21:46:01.795Z,25.90
2023-01-11T21:48:28.904Z,23.90
2023-01-11T21:50:56.483Z,15.40
2023-01-11T21:53:23.271Z,24.20
2023-01-11T21:55:50.197Z,24.10
2023-01-11T21:58:17.061Z,22.70
2023-01-11T22:00:44.130Z,30.20
2023-01-11T22:03:11.319Z,27.70
2023-01-11T22:05:38.584Z,20.60
2023-01-11T22:08:06.486Z,21.40
2023-01-11T22:10:33.760Z,29.50
2023-01-11T22:13:00.851Z,32.30
